createdAt,value
2022-08-25T00:02:18.311Z,14.60
2022-08-25T00:04:46.617Z,13.93
2022-08-25T00:07:21.766Z,15.35
2022-08-25T00:09:49.899Z,16.08
2022-08-25T00:12:18.473Z,13.63
2022-08-25T00:14:46.204Z,14.48
2022-08-25T00:17:14.396Z,15.73
2022-08-25T00:19:42.030Z,14.93
2022-08-25T00:22:09.907Z,17.67
2022-08-25T00:24:38.363Z,16.38
2022-08-25T00:27:06.695Z,15.13
2022-08-25T00:29:38.496Z,15.40
2022-08-25T00:32:07.037Z,18.27
2022-08-25T00:34:37.706Z,17.90
2022-08-25T00:37:08.131Z,17.25
2022-08-25T00:39:37.477Z,14.68
2022-08-25T00:42:13.403Z,16.30
2022-08-25T00:44:45.121Z,17.35
2022-08-25T00:47:13.551Z,14.77
2022-08-25T00:49:52.083Z,15.38
2022-08-25T00:52:28.596Z,16.02
2022-08-25T00:55:08.136Z,20.40
2022-08-25T00:57:44.500Z,18.52
2022-08-25T01:00:23.218Z,16.23
2022-08-25T01:02:51.670Z,17.02
2022-08-25T01:05:19.921Z,16.35
2022-08-25T01:07:49.328Z,16.90
2022-08-25T01:10:18.989Z,17.60
2022-08-25T01:12:46.979Z,16.30
2022-08-25T01:15:15.377Z,16.75
2022-08-25T01:17:50.414Z,17.08
2022-08-25T01:20:21.133Z,15.30
2022-08-25T01:22:54.942Z,13.48
2022-08-25T01:25:57.126Z,14.95
2022-08-25T01:28:25.429Z,14.32
2022-08-25T01:30:53.628Z,16.30
2022-08-25T01:33:21.515Z,18.93
2022-08-25T01:35:50.247Z,15.50
2022-08-25T01:38:18.835Z,14.18
2022-08-25T01:40:46.555Z,15.52
2022-08-25T01:43:37.577Z,12.15
2022-08-25T01:46:05.760Z,15.20
2022-08-25T01:48:33.998Z,11.50
2022-08-25T01:51:01.878Z,14.80
2022-08-25T01:53:33.707Z,15.07
2022-08-25T01:56:14.216Z,15.40
2022-08-25T01:58:46.500Z,10.87
2022-08-25T02:01:19.462Z,13.50
2022-08-25T02:03:50.140Z,11.32
2022-08-25T02:06:29.993Z,11.82
2022-08-25T02:09:02.851Z,15.75
2022-08-25T02:11:34.152Z,11.90
2022-08-25T02:14:02.148Z,12.18
2022-08-25T02:16:33.146Z,11.45
2022-08-25T02:19:02.635Z,14.85
2022-08-25T02:21:30.568Z,12.63
2022-08-25T02:23:58.936Z,11.73
2022-08-25T02:26:29.186Z,14.50
2022-08-25T02:28:57.140Z,14.00
2022-08-25T02:31:26.437Z,12.07
2022-08-25T02:33:55.570Z,11.05
2022-08-25T02:36:24.262Z,11.07
2022-08-25T02:38:53.117Z,13.90
2022-08-25T02:41:31.209Z,15.57
2022-08-25T02:44:01.639Z,16.48
2022-08-25T02:46:31.407Z,17.88
2022-08-25T02:48:59.868Z,21.43
2022-08-25T02:51:32.377Z,19.13
2022-08-25T02:54:02.637Z,20.20
2022-08-25T02:56:32.616Z,23.42
2022-08-25T02:59:02.195Z,19.30
2022-08-25T03:01:31.454Z,24.30
2022-08-25T03:04:02.141Z,27.52
2022-08-25T03:06:30.530Z,32.45
2022-08-25T03:08:59.244Z,27.20
2022-08-25T03:11:27.183Z,39.22
2022-08-25T03:13:56.778Z,46.10
2022-08-25T03:16:27.885Z,34.05
2022-08-25T03:18:57.620Z,26.65
2022-08-25T03:21:26.611Z,27.33
2022-08-25T03:23:55.246Z,31.40
2022-08-25T03:26:42.493Z,28.90
2022-08-25T03:29:11.160Z,30.55
2022-08-25T03:31:39.372Z,35.42
2022-08-25T03:34:08.030Z,29.90
2022-08-25T03:36:35.795Z,31.05
2022-08-25T03:39:04.983Z,27.40
2022-08-25T03:41:34.277Z,23.10
2022-08-25T03:44:04.327Z,26.00
2022-08-25T03:46:35.731Z,62.42
2022-08-25T03:49:05.460Z,54.50
2022-08-25T03:51:37.471Z,29.80
2022-08-25T03:54:05.706Z,56.92
2022-08-25T03:56:33.906Z,26.85
2022-08-25T03:59:01.975Z,49.88
2022-08-25T04:01:30.133Z,31.98
2022-08-25T04:03:58.325Z,36.37
2022-08-25T04:06:26.052Z,33.38
2022-08-25T04:08:53.872Z,66.30
2022-08-25T04:11:23.733Z,32.03
2022-08-25T04:13:52.725Z,89.93
2022-08-25T04:16:24.827Z,73.27
2022-08-25T04:18:55.420Z,22.48
2022-08-25T04:21:24.926Z,24.23
2022-08-25T04:23:54.136Z,18.42
2022-08-25T04:26:34.655Z,18.55
2022-08-25T04:29:04.649Z,30.03
2022-08-25T04:31:34.697Z,30.05
2022-08-25T04:34:14.826Z,26.67
2022-08-25T04:36:54.728Z,27.40
2022-08-25T04:39:22.580Z,27.35
2022-08-25T04:41:51.558Z,43.43
2022-08-25T04:44:20.129Z,30.65
2022-08-25T04:46:48.028Z,17.27
2022-08-25T04:49:15.814Z,67.07
2022-08-25T04:51:44.514Z,19.27
2022-08-25T04:54:17.271Z,16.47
2022-08-25T04:56:45.409Z,29.85
2022-08-25T04:59:16.037Z,18.95
2022-08-25T05:01:47.382Z,40.33
2022-08-25T05:04:27.913Z,60.55
2022-08-25T05:06:58.730Z,28.77
2022-08-25T05:09:27.445Z,22.15
2022-08-25T05:11:55.930Z,16.98
2022-08-25T05:14:26.745Z,16.83
2022-08-25T05:16:57.393Z,14.52
2022-08-25T05:19:26.779Z,15.43
2022-08-25T05:21:54.580Z,23.58
2022-08-25T05:24:27.334Z,22.10
2022-08-25T05:26:55.271Z,16.27
2022-08-25T05:29:23.269Z,13.18
2022-08-25T05:31:51.460Z,13.90
2022-08-25T05:34:20.498Z,15.32
2022-08-25T05:36:49.369Z,20.95
2022-08-25T05:39:18.349Z,12.68
2022-08-25T05:41:46.207Z,13.60
2022-08-25T05:44:19.164Z,13.33
2022-08-25T05:46:49.484Z,38.17
2022-08-25T05:49:17.341Z,21.70
2022-08-25T05:51:45.333Z,16.90
2022-08-25T05:54:13.405Z,14.23
2022-08-25T05:56:41.498Z,16.57
2022-08-25T05:59:09.964Z,34.00
2022-08-25T06:01:56.591Z,15.30
2022-08-25T06:04:24.764Z,14.88
2022-08-25T06:06:55.147Z,19.60
2022-08-25T06:09:24.451Z,13.50
2022-08-25T06:11:54.894Z,14.35
2022-08-25T06:14:25.054Z,16.75
2022-08-25T06:16:53.641Z,13.32
2022-08-25T06:19:23.669Z,13.82
2022-08-25T06:21:55.357Z,17.77
2022-08-25T06:24:24.802Z,15.23
2022-08-25T06:26:53.404Z,14.45
2022-08-25T06:29:21.713Z,13.68
2022-08-25T06:31:52.672Z,13.88
2022-08-25T06:34:23.992Z,12.37
2022-08-25T06:36:52.665Z,13.98
2022-08-25T06:39:21.779Z,13.98
2022-08-25T06:41:54.295Z,15.52
2022-08-25T06:44:22.885Z,20.58
2022-08-25T06:46:51.518Z,19.93
2022-08-25T06:49:19.589Z,18.85
2022-08-25T06:51:47.540Z,18.48
2022-08-25T06:54:15.745Z,18.90
2022-08-25T06:56:44.018Z,19.20
2022-08-25T06:59:11.898Z,14.00
2022-08-25T07:01:40.699Z,15.95
2022-08-25T07:04:12.932Z,18.33
2022-08-25T07:06:42.125Z,20.67
2022-08-25T07:09:10.828Z,17.15
2022-08-25T07:11:40.845Z,16.77
2022-08-25T07:14:12.073Z,18.15
2022-08-25T07:16:42.410Z,19.60
2022-08-25T07:19:14.829Z,18.95
2022-08-25T07:21:46.076Z,14.68
2022-08-25T07:24:15.389Z,16.40
2022-08-25T07:26:43.817Z,16.30
2022-08-25T07:29:18.458Z,22.05
2022-08-25T07:31:48.111Z,16.92
2022-08-25T07:34:34.652Z,17.52
2022-08-25T07:37:06.118Z,19.73
2022-08-25T07:39:35.015Z,16.73
2022-08-25T07:42:02.934Z,17.45
2022-08-25T07:44:31.542Z,20.08
2022-08-25T07:46:59.363Z,20.33
2022-08-25T07:52:18.481Z,18.60
2022-08-25T07:54:47.176Z,20.40
2022-08-25T07:57:15.145Z,25.10
2022-08-25T07:59:43.725Z,15.18
2022-08-25T08:02:18.349Z,14.03
2022-08-25T08:04:50.186Z,15.20
2022-08-25T08:07:42.030Z,14.95
2022-08-25T08:10:48.132Z,12.93
2022-08-25T08:13:02.999Z,14.68
2022-08-25T08:15:31.146Z,16.77
2022-08-25T08:18:00.177Z,19.08
2022-08-25T08:20:29.720Z,18.48
2022-08-25T08:23:04.619Z,18.02
2022-08-25T08:25:33.031Z,13.30
2022-08-25T08:28:00.873Z,17.47
2022-08-25T08:30:30.621Z,18.10
2022-08-25T08:33:13.738Z,16.17
2022-08-25T08:35:43.683Z,15.18
2022-08-25T08:38:18.498Z,16.33
2022-08-25T08:41:48.902Z,21.47
2022-08-25T08:44:44.363Z,18.27
2022-08-25T08:47:33.373Z,20.83
2022-08-25T08:50:22.461Z,28.23
2022-08-25T08:53:34.305Z,20.75
2022-08-25T08:56:07.273Z,23.47
2022-08-25T08:58:45.510Z,21.45
2022-08-25T09:01:43.038Z,25.25
2022-08-25T09:04:20.031Z,22.92
2022-08-25T09:06:50.216Z,18.88
2022-08-25T09:09:29.165Z,20.10
2022-08-25T09:12:12.778Z,25.40
2022-08-25T09:15:23.951Z,26.40
2022-08-25T09:17:55.095Z,26.20
2022-08-25T09:20:35.222Z,20.75
2022-08-25T09:23:15.824Z,27.50
2022-08-25T09:25:59.902Z,25.05
2022-08-25T09:28:40.094Z,23.52
2022-08-25T09:31:18.056Z,25.98
2022-08-25T09:33:45.937Z,25.67
2022-08-25T09:36:15.209Z,29.60
2022-08-25T09:38:43.158Z,26.58
2022-08-25T09:41:15.976Z,27.55
2022-08-25T09:43:54.395Z,24.27
2022-08-25T09:46:28.206Z,28.40
2022-08-25T09:49:11.061Z,25.93
2022-08-25T09:51:43.025Z,28.52
2022-08-25T09:54:14.680Z,34.13
2022-08-25T09:57:01.201Z,21.02
2022-08-25T09:59:35.752Z,25.02
2022-08-25T10:02:21.401Z,31.77
2022-08-25T10:04:49.606Z,23.00
2022-08-25T10:07:32.712Z,24.50
2022-08-25T10:10:04.644Z,24.50
2022-08-25T10:12:44.572Z,27.13
2022-08-25T10:15:29.749Z,21.63
2022-08-25T10:18:28.868Z,35.90
2022-08-25T10:21:13.832Z,23.95
2022-08-25T10:23:48.205Z,34.50
2022-08-25T10:26:40.230Z,25.13
2022-08-25T10:29:19.740Z,26.97
2022-08-25T10:32:12.230Z,24.67
2022-08-25T10:34:59.951Z,21.33
2022-08-25T10:37:46.681Z,20.58
2022-08-25T10:40:35.284Z,24.00
2022-08-25T10:43:19.225Z,27.37
2022-08-25T10:46:13.087Z,25.08
2022-08-25T10:48:56.222Z,22.48
2022-08-25T10:51:36.417Z,29.85
2022-08-25T10:54:05.640Z,20.13
2022-08-25T10:56:42.006Z,21.77
2022-08-25T10:59:42.385Z,23.88
2022-08-25T11:02:49.503Z,24.98
2022-08-25T11:05:26.867Z,23.15
2022-08-25T11:08:04.873Z,28.40
2022-08-25T11:10:52.037Z,18.27
2022-08-25T11:13:41.617Z,26.30
2022-08-25T11:16:18.787Z,23.10
2022-08-25T11:18:54.672Z,23.15
2022-08-25T11:21:39.383Z,27.23
2022-08-25T11:24:36.217Z,23.47
2022-08-25T11:27:13.708Z,18.05
2022-08-25T11:29:44.199Z,24.05
2022-08-25T11:32:12.623Z,34.40
2022-08-25T11:34:43.017Z,24.80
2022-08-25T11:37:23.411Z,22.23
2022-08-25T11:40:13.897Z,24.35
2022-08-25T11:42:58.030Z,26.98
2022-08-25T11:45:54.339Z,22.23
2022-08-25T11:48:29.112Z,24.58
2022-08-25T11:51:10.064Z,24.93
2022-08-25T11:53:44.316Z,22.70
2022-08-25T11:56:33.362Z,30.35
2022-08-25T11:59:03.457Z,26.75
2022-08-25T12:01:43.348Z,32.38
2022-08-25T12:04:41.020Z,27.07
2022-08-25T12:07:20.751Z,24.13
2022-08-25T12:09:55.699Z,30.42
2022-08-25T12:12:44.756Z,32.58
2022-08-25T12:15:26.683Z,30.00
2022-08-25T12:18:15.657Z,28.13
2022-08-25T12:20:58.720Z,24.27
2022-08-25T12:23:44.672Z,27.13
2022-08-25T12:26:30.731Z,27.48
2022-08-25T12:29:15.429Z,28.90
2022-08-25T12:32:04.612Z,25.40
2022-08-25T12:34:54.578Z,32.00
2022-08-25T12:37:24.556Z,23.63
2022-08-25T12:40:06.423Z,25.83
2022-08-25T12:42:38.932Z,21.25
2022-08-25T12:45:34.046Z,28.67
2022-08-25T12:48:26.715Z,27.02
2022-08-25T12:51:08.056Z,30.85
2022-08-25T12:53:40.147Z,16.40
2022-08-25T12:56:28.813Z,17.20
2022-08-25T12:59:22.565Z,18.43
2022-08-25T13:02:08.305Z,24.90
2022-08-25T13:04:46.167Z,26.33
2022-08-25T13:07:31.518Z,23.80
2022-08-25T13:10:30.221Z,18.42
2022-08-25T13:13:10.763Z,21.17
2022-08-25T13:15:46.977Z,23.20
2022-08-25T13:18:32.768Z,20.73
2022-08-25T13:21:25.124Z,25.33
2022-08-25T13:24:04.586Z,22.92
2022-08-25T13:26:48.269Z,19.27
2022-08-25T13:29:21.680Z,14.25
2022-08-25T13:31:54.743Z,15.23
2022-08-25T13:34:34.818Z,16.52
2022-08-25T13:37:32.688Z,22.85
2022-08-25T13:40:12.661Z,18.93
2022-08-25T13:42:51.038Z,18.60
2022-08-25T13:45:26.676Z,18.45
2022-08-25T13:47:56.081Z,18.38
2022-08-25T13:50:27.254Z,15.93
2022-08-25T13:52:57.237Z,16.07
2022-08-25T13:55:51.087Z,21.50
2022-08-25T13:58:38.690Z,23.02
2022-08-25T14:01:22.379Z,19.83
2022-08-25T14:04:21.519Z,21.20
2022-08-25T14:06:49.884Z,19.67
2022-08-25T14:09:28.235Z,21.08
2022-08-25T14:11:58.735Z,16.25
2022-08-25T14:14:26.877Z,13.30
2022-08-25T14:17:22.435Z,20.52
2022-08-25T14:19:56.905Z,16.13
2022-08-25T14:22:24.978Z,16.45
2022-08-25T14:24:54.326Z,15.57
2022-08-25T14:27:22.634Z,12.50
2022-08-25T14:29:52.824Z,14.88
2022-08-25T14:32:21.047Z,18.80
2022-08-25T14:34:49.192Z,17.63
2022-08-25T14:37:19.733Z,15.80
2022-08-25T14:39:47.637Z,20.67
2022-08-25T14:42:17.038Z,19.90
2022-08-25T14:44:45.456Z,16.60
2022-08-25T14:47:13.323Z,21.58
2022-08-25T14:49:44.221Z,12.75
2022-08-25T14:52:22.526Z,21.17
2022-08-25T14:54:51.026Z,19.05
2022-08-25T14:57:19.831Z,19.03
2022-08-25T14:59:48.910Z,15.50
2022-08-25T15:02:29.634Z,16.35
2022-08-25T15:05:02.684Z,19.40
2022-08-25T15:07:51.407Z,13.93
2022-08-25T15:10:19.483Z,21.27
2022-08-25T15:12:53.093Z,18.27
2022-08-25T15:15:22.345Z,19.38
2022-08-25T15:17:50.954Z,17.77
2022-08-25T15:20:19.439Z,16.83
2022-08-25T15:22:48.580Z,15.00
2022-08-25T15:25:16.815Z,17.42
2022-08-25T15:27:45.722Z,16.55
2022-08-25T15:30:15.300Z,22.63
2022-08-25T15:32:43.423Z,13.98
2022-08-25T15:35:12.685Z,22.17
2022-08-25T15:37:43.268Z,13.55
2022-08-25T15:40:12.541Z,20.52
2022-08-25T15:42:42.779Z,17.05
2022-08-25T15:45:11.645Z,12.68
2022-08-25T15:47:39.639Z,17.90
2022-08-25T15:50:14.941Z,12.30
2022-08-25T15:52:46.307Z,23.95
2022-08-25T15:55:16.857Z,18.52
2022-08-25T15:57:45.039Z,16.38
2022-08-25T16:00:16.587Z,15.97
2022-08-25T16:02:46.381Z,18.55
2022-08-25T16:05:20.452Z,20.92
2022-08-25T16:07:53.767Z,17.38
2022-08-25T16:10:22.197Z,17.05
2022-08-25T16:12:50.060Z,18.13
2022-08-25T16:15:17.856Z,18.73
2022-08-25T16:17:51.949Z,18.33
2022-08-25T16:20:21.120Z,13.25
2022-08-25T16:22:51.251Z,12.48
2022-08-25T16:25:19.401Z,13.03
2022-08-25T16:27:48.451Z,14.95
2022-08-25T16:30:18.364Z,17.73
2022-08-25T16:32:46.996Z,18.65
2022-08-25T16:35:18.986Z,21.40
2022-08-25T16:37:47.212Z,16.70
2022-08-25T16:40:19.085Z,16.98
2022-08-25T16:42:48.181Z,20.75
2022-08-25T16:49:01.836Z,17.38
2022-08-25T16:51:32.601Z,22.80
2022-08-25T16:54:22.256Z,19.65
2022-08-25T16:56:55.183Z,19.27
2022-08-25T16:59:24.566Z,19.67
2022-08-25T17:02:49.420Z,22.52
2022-08-25T17:05:18.662Z,17.37
2022-08-25T17:08:07.267Z,15.80
2022-08-25T17:10:39.762Z,16.35
2022-08-25T17:13:08.238Z,17.25
2022-08-25T17:15:41.458Z,19.40
2022-08-25T17:18:35.353Z,22.57
2022-08-25T17:21:08.939Z,20.88
2022-08-25T17:23:37.257Z,14.73
2022-08-25T17:26:12.980Z,15.15
2022-08-25T17:28:45.461Z,17.23
2022-08-25T17:35:09.138Z,19.63
2022-08-25T17:37:38.555Z,16.90
2022-08-25T17:40:11.158Z,19.27
2022-08-25T17:42:41.495Z,19.02
2022-08-25T17:45:11.050Z,14.20
2022-08-25T17:47:39.718Z,15.07
2022-08-25T17:50:08.755Z,9.68
2022-08-25T17:52:36.723Z,13.77
2022-08-25T17:55:05.509Z,14.20
2022-08-25T17:57:37.734Z,22.10
2022-08-25T18:00:14.580Z,15.98
2022-08-25T18:02:43.718Z,14.40
2022-08-25T18:05:13.259Z,15.00
2022-08-25T18:07:43.112Z,18.13
2022-08-25T18:10:13.911Z,17.13
2022-08-25T18:12:44.330Z,17.92
2022-08-25T18:15:14.285Z,18.92
2022-08-25T18:17:42.891Z,19.77
2022-08-25T18:20:15.698Z,17.30
2022-08-25T18:22:46.580Z,13.17
2022-08-25T18:25:17.326Z,22.63
2022-08-25T18:27:46.980Z,27.00
2022-08-25T18:30:15.306Z,19.73
2022-08-25T18:32:44.533Z,19.70
2022-08-25T18:35:16.433Z,19.47
2022-08-25T18:38:08.671Z,19.92
2022-08-25T18:40:39.326Z,16.73
2022-08-25T18:43:09.811Z,15.93
2022-08-25T18:45:48.892Z,14.55
2022-08-25T18:48:20.341Z,14.50
2022-08-25T18:50:51.897Z,14.38
2022-08-25T18:53:30.691Z,16.35
2022-08-25T18:56:06.560Z,14.18
2022-08-25T18:58:34.616Z,15.98
2022-08-25T19:01:04.989Z,18.63
2022-08-25T19:03:35.108Z,12.85
2022-08-25T19:06:05.113Z,14.93
2022-08-25T19:08:33.940Z,13.45
2022-08-25T19:11:01.752Z,11.98
2022-08-25T19:13:30.106Z,17.50
2022-08-25T19:15:58.687Z,16.25
2022-08-25T19:18:29.023Z,18.83
2022-08-25T19:20:59.143Z,17.75
2022-08-25T19:23:27.664Z,12.35
2022-08-25T19:25:56.726Z,18.70
2022-08-25T19:28:27.426Z,11.88
2022-08-25T19:30:55.503Z,13.60
2022-08-25T19:33:42.070Z,11.65
2022-08-25T19:36:14.078Z,14.13
2022-08-25T19:38:44.752Z,11.10
2022-08-25T19:41:15.838Z,15.05
2022-08-25T19:43:55.677Z,15.25
2022-08-25T19:46:35.446Z,15.32
2022-08-25T19:49:10.421Z,22.10
2022-08-25T19:51:44.214Z,17.33
2022-08-25T19:54:19.488Z,18.73
2022-08-25T19:56:55.351Z,18.65
2022-08-25T19:59:40.508Z,16.90
2022-08-25T20:02:18.387Z,14.77
2022-08-25T20:04:49.649Z,20.50
2022-08-25T20:07:24.681Z,17.75
2022-08-25T20:09:55.070Z,21.13
2022-08-25T20:12:25.152Z,22.40
2022-08-25T20:14:54.904Z,16.73
2022-08-25T20:17:28.181Z,16.80
2022-08-25T20:19:59.685Z,19.42
2022-08-25T20:22:30.657Z,18.83
2022-08-25T20:25:21.217Z,15.82
2022-08-25T20:27:55.604Z,21.65
2022-08-25T20:30:29.244Z,18.13
2022-08-25T20:32:58.434Z,17.60
2022-08-25T20:35:27.845Z,17.63
2022-08-25T20:37:58.609Z,19.98
2022-08-25T20:40:28.941Z,18.90
2022-08-25T20:43:00.866Z,15.10
2022-08-25T20:45:31.419Z,12.45
2022-08-25T20:48:00.148Z,19.75
2022-08-25T20:50:28.092Z,15.35
2022-08-25T20:52:58.971Z,13.90
2022-08-25T20:55:29.278Z,15.37
2022-08-25T20:57:56.913Z,15.43
2022-08-25T21:00:25.150Z,15.25
2022-08-25T21:02:54.553Z,16.27
2022-08-25T21:05:22.473Z,14.63
2022-08-25T21:07:50.412Z,14.93
2022-08-25T21:10:18.695Z,11.30
2022-08-25T21:12:46.941Z,12.57
2022-08-25T21:15:18.088Z,13.73
2022-08-25T21:17:50.967Z,18.05
2022-08-25T21:20:19.704Z,15.30
2022-08-25T21:22:47.574Z,14.27
2022-08-25T21:25:15.778Z,17.58
2022-08-25T21:27:43.940Z,12.43
2022-08-25T21:30:13.070Z,15.10
2022-08-25T21:32:40.786Z,14.67
2022-08-25T21:35:23.960Z,14.85
2022-08-25T21:37:53.736Z,10.85
2022-08-25T21:40:23.218Z,13.00
2022-08-25T21:42:52.778Z,12.27
2022-08-25T21:45:21.954Z,13.80
2022-08-25T21:47:49.981Z,10.63
2022-08-25T21:50:20.713Z,18.52
2022-08-25T21:52:48.840Z,13.15
2022-08-25T21:55:23.687Z,11.95
2022-08-25T21:57:51.593Z,9.57
2022-08-25T22:00:21.406Z,15.68
2022-08-25T22:02:50.200Z,15.60
2022-08-25T22:05:18.449Z,13.43
2022-08-25T22:07:46.253Z,12.32
2022-08-25T22:10:16.746Z,17.97
2022-08-25T22:12:48.532Z,10.77
2022-08-25T22:15:18.054Z,11.43
2022-08-25T22:17:48.179Z,9.88
2022-08-25T22:20:18.099Z,10.32
2022-08-25T22:22:46.506Z,13.93
2022-08-25T22:25:14.418Z,13.40
2022-08-25T22:27:42.665Z,13.85
2022-08-25T22:30:11.321Z,11.00
2022-08-25T22:32:39.114Z,14.95
2022-08-25T22:35:07.381Z,10.57
2022-08-25T22:37:36.056Z,14.40
2022-08-25T22:40:05.060Z,16.73
2022-08-25T22:42:33.087Z,20.58
2022-08-25T22:45:01.484Z,9.98
2022-08-25T22:47:29.454Z,14.40
2022-08-25T22:49:59.258Z,10.55
2022-08-25T22:52:33.445Z,15.15
2022-08-25T22:55:03.204Z,11.98
2022-08-25T22:57:31.398Z,13.18
2022-08-25T23:00:24.092Z,9.07
2022-08-25T23:02:53.779Z,10.98
2022-08-25T23:05:21.659Z,12.73
2022-08-25T23:07:51.279Z,15.52
2022-08-25T23:10:21.019Z,13.68
2022-08-25T23:12:48.940Z,14.37
2022-08-25T23:15:16.696Z,15.90
2022-08-25T23:17:44.883Z,14.35
2022-08-25T23:20:31.542Z,8.45
2022-08-25T23:23:00.152Z,9.07
2022-08-25T23:25:27.976Z,13.60
2022-08-25T23:27:56.430Z,13.05
2022-08-25T23:30:27.264Z,12.50
2022-08-25T23:32:55.386Z,13.20
2022-08-25T23:35:23.082Z,14.20
2022-08-25T23:37:52.686Z,12.07
2022-08-25T23:40:22.417Z,13.57
2022-08-25T23:42:50.590Z,13.05
2022-08-25T23:45:18.791Z,11.82
2022-08-25T23:47:47.390Z,12.52
2022-08-25T23:50:17.718Z,14.43
2022-08-25T23:52:46.242Z,11.88
2022-08-25T23:55:14.081Z,12.73
2022-08-25T23:57:43.560Z,8.95
